Time;durP1;ratioP1;P1;durP2;ratioP2;P2;SDS_P1;SDS_P2;PMS_P1;PMS_P2;Temp;Humidity;BMP_temperature;BMP_pressure;BME280_temperature;BME280_humidity;BME280_pressure;Samples;Min_cycle;Max_cycle;Signal;HPM_P1;HPM_P2
2022/05/31 00:02:06;;;;;;;9.25;3.15;;;;;;;;;;4448694;32;20233;-58
2022/05/31 00:04:33;;;;;;;4.53;2.85;;;;;;;;;;4449114;32;20296;-58
2022/05/31 00:06:59;;;;;;;5.57;2.65;;;;;;;;;;4448572;32;20283;-57
2022/05/31 00:09:25;;;;;;;7.20;2.90;;;;;;;;;;4461660;32;20647;-58
2022/05/31 00:11:50;;;;;;;13.18;3.08;;;;;;;;;;4463992;32;20287;-59
2022/05/31 00:14:16;;;;;;;7.55;3.37;;;;;;;;;;4464501;32;20279;-58
2022/05/31 00:16:45;;;;;;;4.95;3.35;;;;;;;;;;4464219;32;20251;-57
2022/05/31 00:19:12;;;;;;;8.98;2.92;;;;;;;;;;4464165;32;20208;-58
2022/05/31 00:21:38;;;;;;;6.62;2.53;;;;;;;;;;4464987;32;20216;-58
2022/05/31 00:24:06;;;;;;;6.55;3.03;;;;;;;;;;4466737;32;20351;-58
2022/05/31 00:26:31;;;;;;;19.87;4.57;;;;;;;;;;4459346;32;20248;-58
2022/05/31 00:28:57;;;;;;;8.32;3.75;;;;;;;;;;4467432;32;20353;-57
2022/05/31 00:31:22;;;;;;;11.93;3.72;;;;;;;;;;4466761;32;20318;-57
2022/05/31 00:33:49;;;;;;;7.12;3.62;;;;;;;;;;4466829;32;20219;-58
2022/05/31 00:36:15;;;;;;;5.35;3.33;;;;;;;;;;4466849;32;20220;-56
2022/05/31 00:38:40;;;;;;;13.00;4.25;;;;;;;;;;4466738;32;20666;-58
2022/05/31 00:41:23;;;;;;;8.15;3.65;;;;;;;;;;4466862;32;20216;-57
2022/05/31 00:43:50;;;;;;;9.38;4.05;;;;;;;;;;4467243;32;20211;-58
2022/05/31 00:46:15;;;;;;;7.32;3.08;;;;;;;;;;4466831;32;20227;-58
2022/05/31 00:48:48;;;;;;;4.62;3.58;;;;;;;;;;4466808;32;20302;-59
2022/05/31 00:51:16;;;;;;;8.43;3.70;;;;;;;;;;4466743;32;20351;-57
2022/05/31 00:54:00;;;;;;;6.45;3.10;;;;;;;;;;4466482;32;20238;-57
2022/05/31 00:56:28;;;;;;;8.85;3.87;;;;;;;;;;4466882;32;20250;-58
2022/05/31 00:59:05;;;;;;;11.50;3.30;;;;;;;;;;4466634;32;20309;-59
2022/05/31 01:01:35;;;;;;;7.93;3.87;;;;;;;;;;4456887;32;20460;-58
2022/05/31 01:04:00;;;;;;;9.00;3.33;;;;;;;;;;4450803;32;20555;-58
2022/05/31 01:06:27;;;;;;;6.57;2.90;;;;;;;;;;4450677;32;20229;-57
2022/05/31 01:08:56;;;;;;;5.10;3.15;;;;;;;;;;4450414;32;20267;-57
2022/05/31 01:11:23;;;;;;;5.87;2.85;;;;;;;;;;4450881;32;20633;-58
2022/05/31 01:13:49;;;;;;;8.82;3.50;;;;;;;;;;4451022;32;20260;-58
2022/05/31 01:16:15;;;;;;;3.85;2.92;;;;;;;;;;4450802;32;20268;-57
2022/05/31 01:18:41;;;;;;;11.02;3.37;;;;;;;;;;4450802;32;20306;-58
2022/05/31 01:21:07;;;;;;;4.85;3.12;;;;;;;;;;4450390;32;20305;-58
2022/05/31 01:24:07;;;;;;;10.00;3.90;;;;;;;;;;4450300;32;20322;-58
2022/05/31 01:26:53;;;;;;;8.60;3.95;;;;;;;;;;4456676;32;20235;-58
2022/05/31 01:29:39;;;;;;;4.00;2.95;;;;;;;;;;4466363;32;20204;-57
2022/05/31 01:32:08;;;;;;;13.25;3.50;;;;;;;;;;4457702;32;20255;-57
2022/05/31 01:34:59;;;;;;;7.22;3.42;;;;;;;;;;4450640;32;20680;-57
2022/05/31 01:37:34;;;;;;;10.43;2.97;;;;;;;;;;4450885;32;20297;-57
2022/05/31 01:40:03;;;;;;;8.70;3.30;;;;;;;;;;4450402;32;20693;-57
2022/05/31 01:42:37;;;;;;;7.82;3.65;;;;;;;;;;4450280;32;20541;-57
2022/05/31 01:45:09;;;;;;;10.25;3.85;;;;;;;;;;4450295;32;20289;-58
2022/05/31 01:47:36;;;;;;;17.55;3.87;;;;;;;;;;4450244;32;20291;-58
2022/05/31 01:50:05;;;;;;;5.05;3.28;;;;;;;;;;4450217;32;20258;-58
2022/05/31 01:52:32;;;;;;;20.52;3.83;;;;;;;;;;4449953;32;20801;-58
2022/05/31 01:54:58;;;;;;;9.38;3.33;;;;;;;;;;4449643;32;20231;-57
2022/05/31 01:57:24;;;;;;;12.23;3.70;;;;;;;;;;4449989;32;20216;-57
2022/05/31 01:59:59;;;;;;;7.65;3.37;;;;;;;;;;4449949;32;20293;-57
2022/05/31 02:02:25;;;;;;;6.00;3.62;;;;;;;;;;4450366;32;20220;-58
2022/05/31 02:04:51;;;;;;;5.68;3.20;;;;;;;;;;4449948;32;20302;-58
2022/05/31 02:07:20;;;;;;;5.78;4.00;;;;;;;;;;4450178;32;20255;-58
2022/05/31 02:09:48;;;;;;;12.37;3.90;;;;;;;;;;4449357;32;20215;-57
2022/05/31 02:12:14;;;;;;;7.60;3.42;;;;;;;;;;4449377;32;20679;-58
2022/05/31 02:14:41;;;;;;;9.68;4.00;;;;;;;;;;4449688;32;20332;-57
2022/05/31 02:17:06;;;;;;;12.65;4.85;;;;;;;;;;4449605;32;20270;-58
2022/05/31 02:19:33;;;;;;;22.65;4.78;;;;;;;;;;4449586;32;20283;-59
2022/05/31 02:22:01;;;;;;;9.18;4.15;;;;;;;;;;4449375;32;20224;-58
2022/05/31 02:24:27;;;;;;;15.57;3.37;;;;;;;;;;4449053;32;20193;-58
2022/05/31 02:26:53;;;;;;;6.10;4.00;;;;;;;;;;4452905;32;20264;-58
2022/05/31 02:29:22;;;;;;;4.45;2.95;;;;;;;;;;4464971;32;20705;-58
2022/05/31 02:31:48;;;;;;;7.57;3.08;;;;;;;;;;4465012;32;20587;-58
2022/05/31 02:34:17;;;;;;;7.20;3.10;;;;;;;;;;4465134;32;20310;-57
2022/05/31 02:36:43;;;;;;;7.40;3.83;;;;;;;;;;4465007;32;20556;-57
2022/05/31 02:39:08;;;;;;;10.38;3.03;;;;;;;;;;4464914;32;20321;-57
2022/05/31 02:41:34;;;;;;;8.23;3.03;;;;;;;;;;4465057;32;20656;-57
2022/05/31 02:44:00;;;;;;;14.73;4.28;;;;;;;;;;4464508;32;20294;-57
2022/05/31 02:46:26;;;;;;;9.43;3.03;;;;;;;;;;4464729;32;20282;-57
2022/05/31 02:48:51;;;;;;;6.18;3.67;;;;;;;;;;4464786;32;20736;-59
2022/05/31 02:51:17;;;;;;;7.18;4.15;;;;;;;;;;4464961;32;20568;-57
2022/05/31 02:53:43;;;;;;;9.73;4.18;;;;;;;;;;4457084;32;20295;-58
2022/05/31 02:56:09;;;;;;;7.12;3.85;;;;;;;;;;4449173;32;20268;-58
2022/05/31 02:58:35;;;;;;;7.37;3.35;;;;;;;;;;4449293;32;20287;-59
2022/05/31 03:01:00;;;;;;;11.05;3.53;;;;;;;;;;4449404;32;20196;-57
2022/05/31 03:03:27;;;;;;;6.93;3.33;;;;;;;;;;4449129;32;20616;-58
2022/05/31 03:05:53;;;;;;;5.85;3.25;;;;;;;;;;4449149;32;20197;-57
2022/05/31 03:08:19;;;;;;;9.23;3.47;;;;;;;;;;4455216;32;20636;-58
2022/05/31 03:10:52;;;;;;;9.10;3.30;;;;;;;;;;4464342;32;20573;-57
2022/05/31 03:13:22;;;;;;;7.75;3.22;;;;;;;;;;4464825;32;20597;-57
2022/05/31 03:15:48;;;;;;;7.53;3.72;;;;;;;;;;4464567;32;20204;-57
2022/05/31 03:18:18;;;;;;;7.00;3.10;;;;;;;;;;4464722;32;20427;-58
2022/05/31 03:20:53;;;;;;;11.70;4.30;;;;;;;;;;4464405;32;20587;-58
2022/05/31 03:23:24;;;;;;;9.88;4.07;;;;;;;;;;4464045;32;20211;-58
2022/05/31 03:25:52;;;;;;;18.35;3.95;;;;;;;;;;4459861;32;20252;-57
2022/05/31 03:28:20;;;;;;;5.05;3.85;;;;;;;;;;4461324;32;20350;-58
2022/05/31 03:30:45;;;;;;;11.10;4.65;;;;;;;;;;4464445;32;20208;-58
2022/05/31 03:33:12;;;;;;;5.75;3.92;;;;;;;;;;4448834;32;20322;-57
2022/05/31 03:35:38;;;;;;;11.65;4.47;;;;;;;;;;4448551;32;20264;-57
2022/05/31 03:38:03;;;;;;;10.15;5.20;;;;;;;;;;4448610;32;20396;-57
2022/05/31 03:43:13;;;;;;;9.25;4.82;;;;;;;;;;4449134;32;20295;-57
2022/05/31 03:45:41;;;;;;;11.50;6.25;;;;;;;;;;4448549;32;20236;-57
2022/05/31 03:48:08;;;;;;;16.83;6.05;;;;;;;;;;4448488;32;20217;-58
2022/05/31 03:50:33;;;;;;;16.58;4.95;;;;;;;;;;4448757;32;20267;-58
2022/05/31 03:53:00;;;;;;;16.45;5.05;;;;;;;;;;4448328;32;20292;-58
2022/05/31 03:55:25;;;;;;;10.00;4.32;;;;;;;;;;4448684;32;20564;-58
2022/05/31 03:57:52;;;;;;;11.98;4.75;;;;;;;;;;4451937;32;20343;-59
2022/05/31 04:00:18;;;;;;;9.55;4.93;;;;;;;;;;4451528;32;20273;-58
2022/05/31 04:02:44;;;;;;;13.80;5.00;;;;;;;;;;4451813;32;20323;-58
2022/05/31 04:05:10;;;;;;;10.90;4.20;;;;;;;;;;4457481;32;20209;-58
2022/05/31 04:07:36;;;;;;;5.97;3.87;;;;;;;;;;4465148;32;20220;-58
2022/05/31 04:10:06;;;;;;;9.60;4.85;;;;;;;;;;4451312;32;20276;-57
2022/05/31 04:12:34;;;;;;;6.22;4.43;;;;;;;;;;4451119;32;20561;-58
2022/05/31 04:15:00;;;;;;;8.55;4.43;;;;;;;;;;4451256;32;20220;-57
2022/05/31 04:17:25;;;;;;;9.40;4.25;;;;;;;;;;4451575;32;20307;-57
2022/05/31 04:19:50;;;;;;;15.20;4.62;;;;;;;;;;4450022;32;20261;-58
2022/05/31 04:22:16;;;;;;;10.05;5.28;;;;;;;;;;4451490;32;20300;-58
2022/05/31 04:24:42;;;;;;;14.23;5.65;;;;;;;;;;4449682;32;20303;-58
2022/05/31 04:27:08;;;;;;;13.88;4.87;;;;;;;;;;4459589;32;20285;-57
2022/05/31 04:29:35;;;;;;;13.25;4.82;;;;;;;;;;4451929;32;20384;-58
2022/05/31 04:32:00;;;;;;;8.85;4.78;;;;;;;;;;4458828;32;20220;-57
2022/05/31 04:34:26;;;;;;;16.33;5.78;;;;;;;;;;4466908;32;20620;-58
2022/05/31 04:36:52;;;;;;;8.93;4.72;;;;;;;;;;4466898;32;20254;-58
2022/05/31 04:39:18;;;;;;;7.68;4.40;;;;;;;;;;4466929;32;20282;-57
2022/05/31 04:41:43;;;;;;;10.98;5.32;;;;;;;;;;4466414;32;20224;-57
2022/05/31 04:44:09;;;;;;;19.02;4.72;;;;;;;;;;4466931;32;20305;-58
2022/05/31 04:46:35;;;;;;;6.85;4.50;;;;;;;;;;4456738;32;20280;-57
2022/05/31 04:49:02;;;;;;;11.50;4.82;;;;;;;;;;4450942;32;20377;-56
2022/05/31 04:51:29;;;;;;;12.02;4.43;;;;;;;;;;4450870;32;20333;-57
2022/05/31 04:53:55;;;;;;;11.05;4.85;;;;;;;;;;4450960;32;20299;-58
2022/05/31 04:56:21;;;;;;;11.95;5.15;;;;;;;;;;4447476;32;20235;-58
2022/05/31 04:58:48;;;;;;;28.17;6.87;;;;;;;;;;4447556;32;20264;-57
2022/05/31 05:01:14;;;;;;;10.32;5.32;;;;;;;;;;4448597;32;20249;-58
2022/05/31 05:03:44;;;;;;;13.45;5.20;;;;;;;;;;4448842;32;20271;-56
2022/05/31 05:06:11;;;;;;;11.93;4.47;;;;;;;;;;4449250;32;20238;-57
2022/05/31 05:08:38;;;;;;;10.45;5.15;;;;;;;;;;4457161;32;20216;-56
2022/05/31 05:11:08;;;;;;;12.35;6.00;;;;;;;;;;4464834;32;20228;-56
2022/05/31 05:13:34;;;;;;;13.98;5.65;;;;;;;;;;4465617;32;20200;-57
2022/05/31 05:16:00;;;;;;;16.10;5.60;;;;;;;;;;4464080;32;20253;-58
2022/05/31 05:18:27;;;;;;;12.93;5.50;;;;;;;;;;4464694;32;20635;-59
2022/05/31 05:20:52;;;;;;;11.10;4.32;;;;;;;;;;4463501;32;20212;-57
2022/05/31 05:23:18;;;;;;;11.88;4.80;;;;;;;;;;4463417;32;20670;-59
2022/05/31 05:25:52;;;;;;;11.63;5.32;;;;;;;;;;4463392;32;20223;-57
2022/05/31 05:31:02;;;;;;;17.02;5.03;;;;;;;;;;4464717;32;20236;-58
2022/05/31 05:33:28;;;;;;;15.32;4.18;;;;;;;;;;4465547;32;20279;-58
2022/05/31 05:35:54;;;;;;;9.63;4.80;;;;;;;;;;4465371;32;20323;-57
2022/05/31 05:38:19;;;;;;;12.35;4.32;;;;;;;;;;4465090;32;20283;-57
2022/05/31 05:40:45;;;;;;;14.95;4.18;;;;;;;;;;4465228;32;20227;-57
2022/05/31 05:43:10;;;;;;;6.40;4.22;;;;;;;;;;4453031;32;20681;-57
2022/05/31 05:45:37;;;;;;;13.52;4.28;;;;;;;;;;4449468;32;20208;-58
2022/05/31 05:48:04;;;;;;;10.15;4.30;;;;;;;;;;4449801;32;20533;-59
2022/05/31 05:50:29;;;;;;;10.05;4.60;;;;;;;;;;4448351;32;20576;-58
2022/05/31 05:53:02;;;;;;;10.30;4.60;;;;;;;;;;4448930;32;20256;-58
2022/05/31 05:55:27;;;;;;;12.18;4.22;;;;;;;;;;4449898;32;20328;-57
2022/05/31 05:57:54;;;;;;;13.05;4.57;;;;;;;;;;4450143;32;20676;-57
2022/05/31 06:00:21;;;;;;;6.35;3.97;;;;;;;;;;4449719;32;20223;-57
2022/05/31 06:02:54;;;;;;;8.25;5.28;;;;;;;;;;4449779;32;20694;-56
2022/05/31 06:05:26;;;;;;;6.15;4.80;;;;;;;;;;4449799;32;20226;-59
2022/05/31 06:08:07;;;;;;;13.95;3.83;;;;;;;;;;4447764;32;20620;-57
2022/05/31 06:10:44;;;;;;;10.73;4.65;;;;;;;;;;4449636;32;20264;-57
2022/05/31 06:13:24;;;;;;;10.50;4.22;;;;;;;;;;4449413;32;20220;-57
2022/05/31 06:15:54;;;;;;;10.20;4.25;;;;;;;;;;4449723;32;20636;-57
2022/05/31 06:18:35;;;;;;;10.38;4.32;;;;;;;;;;4449437;32;20227;-58
2022/05/31 06:21:05;;;;;;;13.80;4.95;;;;;;;;;;4449966;32;20200;-58
2022/05/31 06:23:33;;;;;;;14.48;5.43;;;;;;;;;;4449007;32;20581;-57
2022/05/31 06:25:59;;;;;;;13.15;5.40;;;;;;;;;;4448873;32;20224;-58
2022/05/31 06:28:25;;;;;;;12.37;5.03;;;;;;;;;;4462683;32;20284;-58
2022/05/31 06:30:50;;;;;;;8.70;4.28;;;;;;;;;;4463412;32;20377;-59
2022/05/31 06:33:16;;;;;;;11.00;4.97;;;;;;;;;;4463401;32;20311;-58
2022/05/31 06:35:41;;;;;;;14.90;4.90;;;;;;;;;;4464552;32;20241;-58
2022/05/31 06:38:07;;;;;;;9.27;4.05;;;;;;;;;;4458763;32;20247;-58
2022/05/31 06:40:33;;;;;;;6.97;3.80;;;;;;;;;;4449008;32;20306;-58
2022/05/31 06:42:58;;;;;;;9.80;4.75;;;;;;;;;;4448949;32;20250;-58
2022/05/31 06:45:24;;;;;;;9.82;4.75;;;;;;;;;;4448739;32;20271;-57
2022/05/31 06:47:50;;;;;;;12.18;4.18;;;;;;;;;;4448781;32;20256;-57
2022/05/31 06:50:15;;;;;;;5.78;4.07;;;;;;;;;;4448765;32;20289;-58
2022/05/31 06:58:09;;;;;;;19.80;4.70;;;;;;;;;;4448662;32;20255;-58
2022/05/31 07:00:34;;;;;;;7.40;3.80;;;;;;;;;;4448813;32;20209;-57
2022/05/31 07:03:00;;;;;;;16.23;10.20;;;;;;;;;;4448742;32;20224;-57
2022/05/31 07:05:26;;;;;;;19.23;4.95;;;;;;;;;;4448617;32;20253;-57
2022/05/31 07:07:52;;;;;;;12.80;3.60;;;;;;;;;;4448306;32;20236;-58
2022/05/31 07:10:19;;;;;;;18.65;4.12;;;;;;;;;;4448237;32;20237;-58
2022/05/31 07:12:44;;;;;;;8.65;4.87;;;;;;;;;;4448200;32;20258;-58
2022/05/31 07:15:10;;;;;;;17.25;4.32;;;;;;;;;;4448414;32;20208;-58
2022/05/31 07:17:36;;;;;;;10.93;4.55;;;;;;;;;;4448917;32;20254;-58
2022/05/31 07:20:03;;;;;;;11.45;4.25;;;;;;;;;;4448421;32;20268;-58
2022/05/31 07:22:29;;;;;;;11.23;3.72;;;;;;;;;;4448782;32;20303;-57
2022/05/31 07:24:54;;;;;;;11.07;4.32;;;;;;;;;;4449146;32;20638;-57
2022/05/31 07:27:20;;;;;;;7.03;3.58;;;;;;;;;;4454669;32;20232;-57
2022/05/31 07:29:45;;;;;;;5.68;3.30;;;;;;;;;;4463665;32;20271;-58
2022/05/31 07:32:11;;;;;;;7.85;4.50;;;;;;;;;;4463986;32;20224;-58
2022/05/31 07:34:36;;;;;;;13.02;3.60;;;;;;;;;;4463037;32;20327;-58
2022/05/31 07:37:03;;;;;;;8.75;4.10;;;;;;;;;;4462284;32;20339;-58
2022/05/31 07:39:28;;;;;;;8.55;3.65;;;;;;;;;;4464181;32;20367;-57
2022/05/31 07:41:54;;;;;;;13.20;4.32;;;;;;;;;;4462138;32;20252;-58
2022/05/31 07:44:21;;;;;;;9.65;4.00;;;;;;;;;;4462509;32;20330;-58
2022/05/31 07:46:47;;;;;;;10.90;3.42;;;;;;;;;;4463694;32;20211;-57
2022/05/31 07:49:13;;;;;;;10.60;3.70;;;;;;;;;;4462314;32;20372;-58
2022/05/31 07:51:39;;;;;;;17.15;5.20;;;;;;;;;;4463188;32;20213;-58
2022/05/31 07:54:05;;;;;;;6.60;4.20;;;;;;;;;;4463468;32;20270;-58
2022/05/31 07:56:30;;;;;;;15.93;4.53;;;;;;;;;;4463854;32;20321;-57
2022/05/31 07:58:55;;;;;;;11.95;4.43;;;;;;;;;;4463531;32;20690;-58
2022/05/31 08:01:25;;;;;;;13.73;5.15;;;;;;;;;;4463984;32;20223;-57
2022/05/31 08:03:50;;;;;;;8.80;3.70;;;;;;;;;;4463385;32;20215;-57
2022/05/31 08:06:19;;;;;;;11.73;4.57;;;;;;;;;;4462973;32;20224;-57
2022/05/31 08:08:44;;;;;;;9.30;3.92;;;;;;;;;;4454425;32;20641;-57
2022/05/31 08:11:18;;;;;;;5.55;3.17;;;;;;;;;;4448283;32;20391;-58
2022/05/31 08:13:43;;;;;;;23.83;4.82;;;;;;;;;;4446873;32;20365;-57
2022/05/31 08:16:11;;;;;;;12.30;3.87;;;;;;;;;;4446712;32;20229;-58
2022/05/31 08:18:38;;;;;;;9.50;3.97;;;;;;;;;;4447928;32;20565;-59
2022/05/31 08:21:06;;;;;;;9.40;3.47;;;;;;;;;;4450814;32;20246;-57
2022/05/31 08:23:33;;;;;;;14.07;4.55;;;;;;;;;;4453028;32;20656;-59
2022/05/31 08:25:58;;;;;;;12.25;3.60;;;;;;;;;;4447832;32;20231;-59
2022/05/31 08:28:24;;;;;;;7.20;3.47;;;;;;;;;;4461712;32;20224;-58
2022/05/31 08:30:55;;;;;;;12.23;4.10;;;;;;;;;;4459105;32;20683;-59
2022/05/31 08:33:21;;;;;;;5.22;2.62;;;;;;;;;;4448150;32;20305;-57
2022/05/31 08:35:46;;;;;;;11.43;4.43;;;;;;;;;;4448104;32;20268;-58
2022/05/31 08:38:15;;;;;;;7.00;3.53;;;;;;;;;;4447278;32;20295;-57
2022/05/31 08:41:06;;;;;;;9.05;3.10;;;;;;;;;;4447887;32;20197;-57
2022/05/31 08:43:47;;;;;;;11.02;3.55;;;;;;;;;;4436691;32;20244;-57
2022/05/31 08:46:43;;;;;;;13.07;2.75;;;;;;;;;;4451139;32;20285;-57
2022/05/31 08:52:28;;;;;;;10.65;3.00;;;;;;;;;;4420472;32;20630;-58
2022/05/31 08:57:52;;;;;;;10.52;2.83;;;;;;;;;;4451305;32;20231;-57
2022/05/31 09:00:22;;;;;;;8.57;2.92;;;;;;;;;;4450948;32;20274;-58
2022/05/31 09:02:54;;;;;;;3.85;2.10;;;;;;;;;;4450791;32;20357;-58
2022/05/31 09:05:36;;;;;;;4.45;2.30;;;;;;;;;;4450701;32;20192;-57
2022/05/31 09:08:14;;;;;;;5.03;2.40;;;;;;;;;;4450275;32;20220;-58
2022/05/31 09:10:49;;;;;;;5.35;3.05;;;;;;;;;;4449934;32;20208;-58
2022/05/31 09:13:30;;;;;;;7.50;2.62;;;;;;;;;;4450100;32;20697;-58
2022/05/31 09:16:01;;;;;;;8.80;2.53;;;;;;;;;;4448464;32;20542;-59
2022/05/31 09:18:45;;;;;;;7.80;2.78;;;;;;;;;;4449850;32;20276;-59
2022/05/31 09:21:34;;;;;;;7.18;2.47;;;;;;;;;;4449079;32;20381;-59
2022/05/31 09:24:02;;;;;;;10.85;2.35;;;;;;;;;;4449696;32;20587;-58
2022/05/31 09:26:51;;;;;;;6.03;2.33;;;;;;;;;;4449215;32;20264;-59
2022/05/31 09:29:56;;;;;;;12.77;3.45;;;;;;;;;;4464345;32;20235;-57
2022/05/31 09:32:43;;;;;;;11.40;2.25;;;;;;;;;;4464969;32;20227;-58
2022/05/31 09:35:27;;;;;;;12.45;2.65;;;;;;;;;;4465587;32;20184;-58
2022/05/31 09:38:24;;;;;;;4.40;2.40;;;;;;;;;;4464755;32;20287;-58
2022/05/31 09:40:53;;;;;;;10.20;4.12;;;;;;;;;;4465387;32;20201;-58
2022/05/31 09:43:27;;;;;;;7.75;2.17;;;;;;;;;;4465424;32;20269;-58
2022/05/31 09:46:03;;;;;;;4.22;2.40;;;;;;;;;;4465360;32;20654;-58
2022/05/31 09:48:28;;;;;;;4.82;1.95;;;;;;;;;;4465467;32;20198;-58
2022/05/31 09:50:59;;;;;;;13.75;2.62;;;;;;;;;;4464800;32;20551;-58
2022/05/31 09:59:11;;;;;;;6.85;2.28;;;;;;;;;;4465507;32;20560;-58
2022/05/31 10:01:46;;;;;;;8.35;2.50;;;;;;;;;;4465182;32;20236;-58
2022/05/31 10:04:20;;;;;;;11.57;3.58;;;;;;;;;;4465436;32;20270;-58
2022/05/31 10:06:58;;;;;;;8.65;2.80;;;;;;;;;;4464632;32;20220;-58
2022/05/31 10:09:30;;;;;;;10.60;2.70;;;;;;;;;;4451833;32;20344;-58
2022/05/31 10:12:12;;;;;;;9.85;3.22;;;;;;;;;;4449319;32;20285;-58
2022/05/31 10:14:42;;;;;;;17.95;4.30;;;;;;;;;;4449703;32;20185;-58
2022/05/31 10:17:34;;;;;;;11.05;3.45;;;;;;;;;;4448969;32;20258;-58
2022/05/31 10:20:19;;;;;;;10.77;3.35;;;;;;;;;;4449308;32;20230;-59
2022/05/31 10:22:57;;;;;;;13.45;3.30;;;;;;;;;;4448843;32;20221;-58
2022/05/31 10:25:29;;;;;;;8.10;2.75;;;;;;;;;;4449617;32;20201;-58
2022/05/31 10:28:01;;;;;;;9.00;2.95;;;;;;;;;;4458995;32;20655;-58
2022/05/31 10:30:28;;;;;;;12.98;2.53;;;;;;;;;;4462897;32;20311;-57
2022/05/31 10:32:57;;;;;;;5.90;2.45;;;;;;;;;;4463840;32;20298;-59
2022/05/31 10:35:25;;;;;;;6.80;2.47;;;;;;;;;;4463034;32;20381;-57
2022/05/31 10:38:18;;;;;;;4.53;2.40;;;;;;;;;;4465088;32;20410;-57
2022/05/31 10:40:52;;;;;;;11.57;3.22;;;;;;;;;;4463471;32;20303;-58
2022/05/31 10:43:28;;;;;;;13.88;2.60;;;;;;;;;;4463783;32;20224;-58
2022/05/31 10:45:55;;;;;;;7.30;2.10;;;;;;;;;;4464799;32;20317;-57
2022/05/31 10:48:20;;;;;;;5.70;2.60;;;;;;;;;;4463495;32;20298;-58
2022/05/31 10:50:57;;;;;;;9.75;2.55;;;;;;;;;;4464167;32;20248;-57
2022/05/31 10:53:31;;;;;;;7.12;2.67;;;;;;;;;;4463396;32;20299;-58
2022/05/31 10:56:12;;;;;;;9.35;2.65;;;;;;;;;;4463362;32;20652;-59
2022/05/31 10:58:47;;;;;;;5.20;2.12;;;;;;;;;;4464665;32;20242;-59
2022/05/31 11:01:33;;;;;;;4.93;2.72;;;;;;;;;;4464502;32;20245;-58
2022/05/31 11:04:14;;;;;;;11.35;3.03;;;;;;;;;;4439491;32;20704;-57
2022/05/31 11:07:15;;;;;;;5.15;2.00;;;;;;;;;;4463030;32;20244;-58
2022/05/31 11:12:30;;;;;;;13.55;2.72;;;;;;;;;;4447111;32;20280;-58
2022/05/31 11:14:55;;;;;;;8.15;2.92;;;;;;;;;;4448247;32;20283;-57
2022/05/31 11:17:52;;;;;;;9.95;2.70;;;;;;;;;;4447498;32;20683;-57
2022/05/31 11:20:27;;;;;;;4.65;2.08;;;;;;;;;;4455826;32;20276;-58
2022/05/31 11:23:14;;;;;;;8.57;2.47;;;;;;;;;;4463733;32;20227;-58
2022/05/31 11:26:17;;;;;;;8.93;2.12;;;;;;;;;;4464171;32;20205;-58
2022/05/31 11:29:10;;;;;;;7.15;2.50;;;;;;;;;;4463306;32;20267;-57
2022/05/31 11:31:50;;;;;;;10.20;2.97;;;;;;;;;;4463874;32;20617;-58
2022/05/31 11:34:21;;;;;;;4.22;2.25;;;;;;;;;;4464084;32;20192;-58
2022/05/31 11:37:16;;;;;;;6.75;2.28;;;;;;;;;;4463832;32;20606;-57
2022/05/31 11:40:33;;;;;;;7.65;2.80;;;;;;;;;;4439274;32;20668;-58
2022/05/31 11:43:19;;;;;;;6.95;2.72;;;;;;;;;;4443412;32;20749;-58
2022/05/31 11:46:22;;;;;;;5.03;2.40;;;;;;;;;;4464201;32;20234;-57
2022/05/31 11:48:53;;;;;;;5.50;2.55;;;;;;;;;;4439848;32;20291;-57
2022/05/31 11:51:40;;;;;;;5.45;3.20;;;;;;;;;;4463880;32;20220;-58
2022/05/31 11:54:32;;;;;;;6.55;3.08;;;;;;;;;;4462980;32;20200;-57
2022/05/31 11:56:57;;;;;;;18.10;3.35;;;;;;;;;;4462443;32;20705;-57
2022/05/31 11:59:31;;;;;;;7.50;2.55;;;;;;;;;;4463334;32;20358;-57
2022/05/31 12:02:02;;;;;;;8.13;2.37;;;;;;;;;;4463809;32;20255;-57
2022/05/31 12:04:39;;;;;;;12.80;3.25;;;;;;;;;;4464104;32;20251;-58
2022/05/31 12:07:20;;;;;;;8.10;2.87;;;;;;;;;;4462202;32;20227;-58
2022/05/31 12:09:59;;;;;;;5.18;2.20;;;;;;;;;;4447676;32;20234;-57
2022/05/31 12:12:35;;;;;;;9.55;2.70;;;;;;;;;;4444983;32;20244;-58
2022/05/31 12:15:22;;;;;;;10.07;2.50;;;;;;;;;;4447565;32;20188;-57
2022/05/31 12:18:18;;;;;;;6.10;2.75;;;;;;;;;;4448549;32;20701;-57
2022/05/31 12:20:56;;;;;;;10.43;3.72;;;;;;;;;;4434392;32;20299;-57
2022/05/31 12:23:34;;;;;;;10.68;2.72;;;;;;;;;;4448091;32;20347;-57
2022/05/31 12:26:04;;;;;;;10.82;2.65;;;;;;;;;;4447501;32;20252;-58
2022/05/31 12:28:38;;;;;;;7.57;2.53;;;;;;;;;;4461502;32;20299;-58
2022/05/31 12:31:31;;;;;;;4.20;2.62;;;;;;;;;;4462755;32;20513;-58
2022/05/31 12:34:20;;;;;;;17.48;2.60;;;;;;;;;;4460071;32;20232;-57
2022/05/31 12:37:03;;;;;;;6.70;2.40;;;;;;;;;;4462604;32;20254;-57
2022/05/31 12:39:33;;;;;;;4.50;2.50;;;;;;;;;;4467263;32;20228;-57
2022/05/31 12:42:12;;;;;;;9.25;1.95;;;;;;;;;;4466820;32;20653;-57
2022/05/31 12:44:40;;;;;;;8.80;1.87;;;;;;;;;;4467297;32;20541;-57
2022/05/31 12:47:28;;;;;;;11.48;2.95;;;;;;;;;;4467125;32;20227;-58
2022/05/31 12:50:04;;;;;;;28.92;6.05;;;;;;;;;;4465959;32;20263;-59
2022/05/31 12:55:28;;;;;;;25.05;5.03;;;;;;;;;;4456188;32;20295;-59
2022/05/31 13:00:51;;;;;;;15.32;4.15;;;;;;;;;;4451086;32;20256;-59
2022/05/31 13:03:34;;;;;;;18.52;4.20;;;;;;;;;;4465776;32;20631;-59
2022/05/31 13:06:23;;;;;;;18.02;4.72;;;;;;;;;;4466059;32;20283;-59
2022/05/31 13:08:51;;;;;;;25.42;6.05;;;;;;;;;;4456945;32;20626;-60
2022/05/31 13:20:04;;;;;;;6.78;2.80;;;;;;;;;;4449046;32;20566;-58
2022/05/31 13:22:37;;;;;;;13.23;4.30;;;;;;;;;;4447182;32;20315;-58
2022/05/31 13:25:18;;;;;;;15.52;4.80;;;;;;;;;;4448737;32;20283;-59
2022/05/31 13:27:59;;;;;;;7.82;3.83;;;;;;;;;;4460509;32;20356;-60
2022/05/31 13:30:41;;;;;;;16.12;5.90;;;;;;;;;;4466396;32;20600;-60
2022/05/31 13:33:18;;;;;;;15.05;6.72;;;;;;;;;;4465852;32;20215;-60
2022/05/31 13:35:43;;;;;;;11.45;5.05;;;;;;;;;;4466130;32;20339;-60
2022/05/31 13:38:26;;;;;;;8.88;4.15;;;;;;;;;;4466075;32;20578;-60
2022/05/31 13:40:56;;;;;;;14.65;3.55;;;;;;;;;;4465980;32;20196;-61
2022/05/31 13:43:28;;;;;;;9.40;3.65;;;;;;;;;;4465816;32;20200;-61
2022/05/31 13:45:57;;;;;;;12.05;3.53;;;;;;;;;;4465702;32;20268;-62
2022/05/31 13:48:28;;;;;;;4.62;2.58;;;;;;;;;;4466061;32;20275;-62
2022/05/31 13:50:58;;;;;;;9.73;2.37;;;;;;;;;;4465563;32;20246;-61
2022/05/31 13:53:26;;;;;;;5.55;2.62;;;;;;;;;;4466006;32;20687;-60
2022/05/31 13:55:59;;;;;;;9.40;3.53;;;;;;;;;;4466271;32;20269;-60
2022/05/31 13:58:34;;;;;;;5.53;2.20;;;;;;;;;;4464654;32;20246;-61
2022/05/31 14:01:02;;;;;;;7.80;1.87;;;;;;;;;;4460119;32;20255;-61
2022/05/31 14:03:34;;;;;;;9.48;2.05;;;;;;;;;;4450924;32;20636;-61
2022/05/31 14:06:07;;;;;;;5.47;2.00;;;;;;;;;;4450608;32;20266;-60
2022/05/31 14:08:45;;;;;;;8.10;2.40;;;;;;;;;;4451481;32;20307;-61
2022/05/31 14:11:22;;;;;;;7.00;2.33;;;;;;;;;;4450181;32;20402;-61
2022/05/31 14:13:50;;;;;;;14.90;2.17;;;;;;;;;;4449871;32;20330;-60
2022/05/31 14:16:27;;;;;;;5.87;2.47;;;;;;;;;;4449748;32;20280;-60
2022/05/31 14:18:56;;;;;;;3.87;2.03;;;;;;;;;;4449965;32;20322;-61
2022/05/31 14:21:23;;;;;;;15.38;2.33;;;;;;;;;;4448191;32;20289;-61
2022/05/31 14:23:50;;;;;;;6.25;2.17;;;;;;;;;;4448478;32;20284;-61
2022/05/31 14:26:17;;;;;;;7.82;2.35;;;;;;;;;;4449292;32;20224;-60
2022/05/31 14:29:13;;;;;;;4.60;1.98;;;;;;;;;;4449923;32;20192;-60
2022/05/31 14:31:45;;;;;;;11.82;3.10;;;;;;;;;;4460811;32;20215;-60
2022/05/31 14:34:38;;;;;;;7.10;2.25;;;;;;;;;;4464808;32;20200;-59
2022/05/31 14:37:05;;;;;;;7.75;2.47;;;;;;;;;;4457763;32;20384;-59
2022/05/31 14:39:33;;;;;;;7.57;2.28;;;;;;;;;;4464425;32;20251;-60
2022/05/31 14:42:00;;;;;;;9.82;2.83;;;;;;;;;;4464553;32;20311;-58
2022/05/31 14:44:40;;;;;;;7.28;2.53;;;;;;;;;;4464549;32;20251;-61
2022/05/31 14:47:11;;;;;;;5.55;2.58;;;;;;;;;;4464664;32;20254;-60
2022/05/31 14:49:45;;;;;;;5.62;2.25;;;;;;;;;;4463874;32;20199;-60
2022/05/31 14:52:22;;;;;;;3.65;2.17;;;;;;;;;;4462849;32;20730;-60
2022/05/31 14:54:49;;;;;;;10.75;2.65;;;;;;;;;;4464045;32;20180;-60
2022/05/31 14:57:25;;;;;;;9.32;2.87;;;;;;;;;;4460787;32;20272;-60
2022/05/31 14:59:55;;;;;;;4.85;2.33;;;;;;;;;;4449803;32;20227;-60
2022/05/31 15:02:26;;;;;;;7.00;2.20;;;;;;;;;;4447185;32;20289;-60
2022/05/31 15:04:54;;;;;;;9.20;2.42;;;;;;;;;;4447133;32;20295;-60
2022/05/31 15:07:23;;;;;;;4.85;2.22;;;;;;;;;;4449690;32;20532;-60
2022/05/31 15:10:34;;;;;;;5.65;2.45;;;;;;;;;;4448478;32;20629;-60
2022/05/31 15:18:59;;;;;;;6.75;2.42;;;;;;;;;;4435191;32;20983;-59
2022/05/31 15:21:28;;;;;;;5.37;2.22;;;;;;;;;;4461503;32;20232;-59
2022/05/31 15:23:54;;;;;;;2.95;1.48;;;;;;;;;;4463081;32;20292;-60
2022/05/31 15:26:22;;;;;;;15.27;2.58;;;;;;;;;;4462334;32;20338;-60
2022/05/31 15:28:48;;;;;;;5.53;2.20;;;;;;;;;;4464829;32;20204;-59
2022/05/31 15:31:30;;;;;;;13.40;2.42;;;;;;;;;;4464215;32;20807;-60
2022/05/31 15:33:56;;;;;;;5.30;2.00;;;;;;;;;;4464622;32;20631;-60
2022/05/31 15:36:22;;;;;;;4.90;2.15;;;;;;;;;;4464686;32;20224;-60
2022/05/31 15:38:47;;;;;;;19.92;3.05;;;;;;;;;;4463697;32;20299;-60
2022/05/31 15:41:13;;;;;;;13.73;3.08;;;;;;;;;;4464596;32;20239;-60
2022/05/31 15:43:55;;;;;;;6.47;2.40;;;;;;;;;;4464405;32;20289;-59
2022/05/31 15:46:22;;;;;;;5.03;2.33;;;;;;;;;;4464657;32;20373;-60
2022/05/31 15:48:48;;;;;;;8.80;2.58;;;;;;;;;;4462606;32;20268;-60
2022/05/31 15:51:19;;;;;;;10.70;3.72;;;;;;;;;;4464836;32;20513;-60